Time;durP1;ratioP1;P1;durP2;ratioP2;P2;SDS_P1;SDS_P2;PMS_P1;PMS_P2;Temp;Humidity;BMP_temperature;BMP_pressure;BME280_temperature;BME280_humidity;BME280_pressure;Samples;Min_cycle;Max_cycle;Signal;HPM_P1;HPM_P2
2023/03/01 00:02:04;;;;;;;13.03;8.80;;;3.30;95.20;;;;;;5072849;28;20662;-75
2023/03/01 00:04:32;;;;;;;15.60;9.23;;;3.20;95.30;;;;;;5071094;28;20215;-73
2023/03/01 00:06:57;;;;;;;14.50;8.67;;;3.20;95.30;;;;;;5071884;28;20175;-75
2023/03/01 00:09:23;;;;;;;16.23;9.47;;;3.10;95.60;;;;;;5071237;28;20191;-74
2023/03/01 00:11:49;;;;;;;11.83;8.53;;;3.00;95.40;;;;;;5070117;28;20186;-74
2023/03/01 00:14:17;;;;;;;15.30;9.23;;;2.90;95.50;;;;;;5071674;28;20181;-78
2023/03/01 00:16:44;;;;;;;12.40;8.77;;;3.00;95.70;;;;;;5071541;28;20658;-72
2023/03/01 00:19:15;;;;;;;15.27;9.17;;;2.90;95.50;;;;;;5071206;28;20273;-75
2023/03/01 00:21:41;;;;;;;15.77;10.20;;;2.90;95.60;;;;;;5071951;28;20212;-75
2023/03/01 00:24:08;;;;;;;10.97;8.50;;;2.90;95.60;;;;;;5076451;28;20650;-78
2023/03/01 00:26:33;;;;;;;15.77;8.97;;;2.90;95.60;;;;;;5076781;28;20167;-76
2023/03/01 00:29:00;;;;;;;11.97;8.60;;;2.90;95.60;;;;;;5074289;28;20179;-80
2023/03/01 00:31:31;;;;;;;11.93;8.30;;;3.00;95.60;;;;;;5075056;28;20174;-78
2023/03/01 00:33:59;;;;;;;16.07;9.57;;;3.10;95.60;;;;;;5074098;28;20696;-78
2023/03/01 00:36:30;;;;;;;13.93;9.50;;;3.10;95.60;;;;;;5077162;28;20209;-74
2023/03/01 00:38:56;;;;;;;13.73;8.87;;;3.10;95.60;;;;;;5077554;28;20254;-77
2023/03/01 00:41:22;;;;;;;15.07;9.40;;;3.00;95.60;;;;;;5078004;28;20212;-74
2023/03/01 00:43:49;;;;;;;12.17;8.60;;;3.00;95.60;;;;;;5081002;28;20286;-75
2023/03/01 00:46:19;;;;;;;12.47;8.90;;;3.00;95.80;;;;;;5092273;28;20194;-78
2023/03/01 00:48:45;;;;;;;13.37;8.37;;;3.00;95.80;;;;;;5080169;28;20170;-76
2023/03/01 00:51:14;;;;;;;13.70;8.33;;;3.10;96.00;;;;;;5074917;28;20209;-82
2023/03/01 00:53:41;;;;;;;14.23;8.23;;;3.10;95.60;;;;;;5075098;28;20169;-77
2023/03/01 00:56:08;;;;;;;14.70;9.43;;;3.20;95.60;;;;;;5075154;28;20173;-72
2023/03/01 00:58:35;;;;;;;15.63;8.87;;;3.20;95.60;;;;;;5074713;28;20208;-75
2023/03/01 01:01:07;;;;;;;13.17;8.37;;;3.20;95.40;;;;;;5074398;28;20539;-80
2023/03/01 01:03:32;;;;;;;15.37;9.47;;;3.10;95.40;;;;;;5074927;28;20183;-75
2023/03/01 01:05:58;;;;;;;14.73;8.67;;;3.00;95.50;;;;;;5074382;28;20565;-82
2023/03/01 01:08:24;;;;;;;14.43;9.37;;;3.00;95.60;;;;;;5074397;28;20198;-82
2023/03/01 01:10:49;;;;;;;12.93;8.83;;;3.00;95.70;;;;;;5073462;28;20178;-75
2023/03/01 01:13:15;;;;;;;14.27;9.73;;;3.00;95.60;;;;;;5074069;28;20254;-79
2023/03/01 01:15:41;;;;;;;14.50;8.67;;;3.00;95.60;;;;;;5072959;28;20204;-80
2023/03/01 01:18:07;;;;;;;12.40;8.07;;;3.00;95.60;;;;;;5074538;28;20181;-81
2023/03/01 01:20:35;;;;;;;13.13;9.17;;;3.00;95.60;;;;;;5073648;28;20949;-76
2023/03/01 01:23:01;;;;;;;14.00;9.60;;;3.00;95.60;;;;;;5073769;28;20228;-76
2023/03/01 01:25:26;;;;;;;13.00;8.70;;;3.10;95.60;;;;;;5073918;28;20172;-72
2023/03/01 01:27:52;;;;;;;11.43;8.27;;;3.10;95.50;;;;;;5074022;28;20543;-76
2023/03/01 01:30:18;;;;;;;15.97;8.93;;;3.00;95.60;;;;;;5073785;28;20177;-80
2023/03/01 01:32:44;;;;;;;12.60;9.13;;;3.00;95.70;;;;;;5073951;28;20193;-78
2023/03/01 01:35:09;;;;;;;14.73;8.83;;;3.10;95.70;;;;;;5083094;28;20234;-74
2023/03/01 01:37:35;;;;;;;12.17;8.50;;;3.10;95.70;;;;;;5078626;28;20177;-78
2023/03/01 01:40:04;;;;;;;13.63;8.17;;;3.10;95.70;;;;;;5073389;28;20670;-77
2023/03/01 01:42:30;;;;;;;13.50;8.63;;;3.10;95.70;;;;;;5073209;28;20308;-75
2023/03/01 01:45:25;;;;;;;10.90;8.23;;;3.10;95.80;;;;;;5073510;28;20664;-79
2023/03/01 01:47:54;;;;;;;13.47;9.07;;;3.10;95.80;;;;;;5072074;28;20274;-79
2023/03/01 01:50:20;;;;;;;12.43;8.27;;;3.00;96.00;;;;;;5073249;28;20194;-78
2023/03/01 01:52:48;;;;;;;11.50;8.10;;;2.90;96.00;;;;;;5073163;28;20254;-74
2023/03/01 01:55:23;;;;;;;12.70;8.50;;;2.80;96.10;;;;;;5074027;28;20184;-73
2023/03/01 01:57:54;;;;;;;12.53;8.33;;;2.90;96.20;;;;;;5080684;28;20214;-72
2023/03/01 02:00:23;;;;;;;12.70;8.90;;;2.90;96.10;;;;;;5078930;28;20201;-76
2023/03/01 02:02:55;;;;;;;11.87;8.17;;;2.90;95.90;;;;;;5073373;28;20180;-77
2023/03/01 02:05:38;;;;;;;12.03;8.27;;;3.00;96.00;;;;;;5073310;28;20175;-78
2023/03/01 02:08:06;;;;;;;12.73;8.67;;;2.90;96.10;;;;;;5071940;28;20179;-79
2023/03/01 02:10:34;;;;;;;11.43;8.20;;;2.90;96.10;;;;;;5071489;28;20185;-73
2023/03/01 02:13:01;;;;;;;12.90;8.17;;;2.80;96.10;;;;;;5071270;28;20646;-76
2023/03/01 02:15:31;;;;;;;11.87;7.80;;;2.80;96.20;;;;;;5073154;28;20228;-75
2023/03/01 02:17:57;;;;;;;11.97;7.93;;;2.70;96.10;;;;;;5072900;28;20201;-79
2023/03/01 02:20:49;;;;;;;17.23;9.60;;;2.70;96.00;;;;;;5070697;28;20211;-72
2023/03/01 02:23:15;;;;;;;11.13;7.30;;;2.70;96.10;;;;;;5072395;28;20191;-76
2023/03/01 02:26:07;;;;;;;10.30;7.13;;;2.80;96.10;;;;;;5072564;28;20176;-82
2023/03/01 02:28:38;;;;;;;11.87;7.97;;;2.90;96.00;;;;;;5072628;28;20175;-74
2023/03/01 02:33:52;;;;;;;12.20;7.80;;;2.80;95.90;;;;;;5072904;28;20219;-79
2023/03/01 02:36:39;;;;;;;13.73;8.00;;;2.80;96.00;;;;;;5073055;28;20587;-74
2023/03/01 02:39:14;;;;;;;11.83;7.90;;;2.80;95.80;;;;;;5072654;28;20284;-75
2023/03/01 02:41:42;;;;;;;12.30;7.90;;;2.80;95.90;;;;;;5073099;28;20168;-75
2023/03/01 02:44:08;;;;;;;15.73;8.83;;;2.90;95.80;;;;;;5074008;28;20244;-81
2023/03/01 02:46:41;;;;;;;13.63;8.27;;;2.90;95.80;;;;;;5082326;28;20191;-73
2023/03/01 02:49:30;;;;;;;13.47;8.03;;;2.90;95.80;;;;;;5087977;28;20176;-75
2023/03/01 02:52:17;;;;;;;12.53;7.77;;;3.10;95.80;;;;;;5073145;28;20157;-77
2023/03/01 02:55:06;;;;;;;12.17;8.23;;;3.10;95.60;;;;;;5072507;28;20162;-73
2023/03/01 02:57:34;;;;;;;10.97;7.67;;;3.20;95.40;;;;;;5062872;28;20184;-73
2023/03/01 03:00:07;;;;;;;12.20;7.90;;;3.20;95.10;;;;;;5071594;28;20214;-77
2023/03/01 03:02:37;;;;;;;10.50;7.57;;;3.10;94.90;;;;;;5071711;28;20176;-75
2023/03/01 03:05:09;;;;;;;11.20;7.30;;;3.00;95.20;;;;;;5072136;28;20554;-75
2023/03/01 03:07:37;;;;;;;14.20;8.00;;;3.00;95.10;;;;;;5072110;28;20152;-72
2023/03/01 03:10:05;;;;;;;11.80;7.73;;;3.00;95.20;;;;;;5070883;28;20608;-77
2023/03/01 03:12:31;;;;;;;10.40;7.40;;;3.00;94.90;;;;;;5078972;28;20183;-75
2023/03/01 03:14:57;;;;;;;10.90;7.23;;;3.00;94.90;;;;;;5078609;28;20183;-73
2023/03/01 03:17:23;;;;;;;12.57;8.27;;;3.00;95.00;;;;;;5071773;28;20520;-73
2023/03/01 03:19:49;;;;;;;11.90;7.80;;;3.10;95.00;;;;;;5071450;28;20215;-75
2023/03/01 03:22:14;;;;;;;13.10;8.10;;;3.10;95.10;;;;;;5071925;28;20189;-72
2023/03/01 03:24:40;;;;;;;11.00;7.43;;;3.20;95.30;;;;;;5071660;28;20282;-74
2023/03/01 03:27:07;;;;;;;10.43;7.67;;;3.20;94.70;;;;;;5071097;28;20183;-76
2023/03/01 03:29:33;;;;;;;10.73;7.67;;;3.20;94.60;;;;;;5074784;28;20183;-77
2023/03/01 03:31:59;;;;;;;11.73;7.97;;;3.10;94.80;;;;;;5085298;28;20181;-76
2023/03/01 03:34:25;;;;;;;11.17;7.90;;;3.10;95.10;;;;;;5072501;28;20175;-74
2023/03/01 03:36:59;;;;;;;10.57;7.67;;;3.10;94.80;;;;;;5072916;28;20511;-80
2023/03/01 03:39:26;;;;;;;11.83;7.93;;;3.20;95.00;;;;;;5072033;28;20707;-79
2023/03/01 03:41:53;;;;;;;10.83;7.93;;;3.30;94.90;;;;;;5071979;28;20640;-81
2023/03/01 03:44:19;;;;;;;11.33;7.43;;;3.30;94.70;;;;;;5070414;28;20182;-78
2023/03/01 03:46:45;;;;;;;15.43;8.50;;;3.30;94.70;;;;;;5069981;28;20536;-74
2023/03/01 03:49:11;;;;;;;12.00;7.90;;;3.30;94.50;;;;;;5071819;28;20178;-80
2023/03/01 03:51:36;;;;;;;13.73;7.97;;;3.30;94.60;;;;;;5071737;28;20240;-76
2023/03/01 03:54:02;;;;;;;13.20;8.50;;;3.30;94.40;;;;;;5071748;28;20178;-75
2023/03/01 03:56:29;;;;;;;10.40;7.47;;;3.30;94.40;;;;;;5071611;28;20626;-82
2023/03/01 03:58:55;;;;;;;11.73;7.73;;;3.30;94.50;;;;;;5073228;28;20236;-82
2023/03/01 04:01:21;;;;;;;13.27;7.83;;;3.40;94.60;;;;;;5075317;28;20210;-78
2023/03/01 04:03:46;;;;;;;11.40;8.23;;;3.40;94.10;;;;;;5075400;28;20214;-75
2023/03/01 04:06:14;;;;;;;9.60;7.20;;;3.40;93.90;;;;;;5074237;28;20616;-80
2023/03/01 04:08:40;;;;;;;9.67;6.80;;;3.40;94.00;;;;;;5073911;28;20182;-81
2023/03/01 04:13:52;;;;;;;9.43;6.87;;;3.50;94.20;;;;;;5075383;28;20168;-76
2023/03/01 04:16:18;;;;;;;11.03;8.10;;;3.50;94.20;;;;;;5075667;28;20208;-83
2023/03/01 04:18:44;;;;;;;11.93;7.93;;;3.40;94.00;;;;;;5075113;28;20650;-83
2023/03/01 04:21:11;;;;;;;8.60;7.17;;;3.30;94.00;;;;;;5074691;28;20180;-81
2023/03/01 04:23:37;;;;;;;10.43;7.93;;;3.30;93.50;;;;;;5074738;28;20183;-79
2023/03/01 04:26:04;;;;;;;14.53;7.17;;;3.30;93.70;;;;;;5074861;28;20183;-81
2023/03/01 04:28:35;;;;;;;11.93;7.53;;;3.40;93.60;;;;;;5074983;28;20704;-76
2023/03/01 04:31:13;;;;;;;8.93;6.90;;;3.40;93.70;;;;;;5073656;28;20190;-80
2023/03/01 04:33:59;;;;;;;11.53;7.80;;;3.50;93.70;;;;;;5074892;28;20212;-75
2023/03/01 04:36:28;;;;;;;10.17;7.10;;;3.60;93.80;;;;;;5075980;28;20173;-77
2023/03/01 04:38:54;;;;;;;13.90;8.20;;;3.60;93.80;;;;;;5075934;28;20198;-79
2023/03/01 04:41:23;;;;;;;12.03;8.37;;;3.50;93.90;;;;;;5077009;28;20554;-75
2023/03/01 04:43:49;;;;;;;10.10;7.53;;;3.50;93.90;;;;;;5080749;28;20736;-74
2023/03/01 04:46:17;;;;;;;11.53;8.07;;;3.50;94.20;;;;;;5082942;28;20193;-72
2023/03/01 04:48:47;;;;;;;10.77;7.97;;;3.50;94.10;;;;;;5089739;28;20183;-76
2023/03/01 04:51:13;;;;;;;12.80;9.20;;;3.40;94.40;;;;;;5082075;28;20579;-73
2023/03/01 04:53:39;;;;;;;13.03;8.83;;;3.40;94.60;;;;;;5075481;28;20165;-72
2023/03/01 04:56:06;;;;;;;13.80;9.53;;;3.30;94.80;;;;;;5074326;28;20209;-75
2023/03/01 04:58:32;;;;;;;13.73;9.37;;;3.30;95.10;;;;;;5074295;28;20269;-76
2023/03/01 05:00:58;;;;;;;14.50;9.40;;;3.30;95.20;;;;;;5072773;28;20617;-74
2023/03/01 05:03:24;;;;;;;12.40;9.40;;;3.30;95.30;;;;;;5078071;28;20188;-77
2023/03/01 05:05:52;;;;;;;17.97;11.00;;;3.30;95.20;;;;;;5092895;28;20174;-73
2023/03/01 05:08:18;;;;;;;18.70;10.30;;;3.30;95.40;;;;;;5091544;28;20228;-79
2023/03/01 05:10:46;;;;;;;17.23;10.50;;;3.30;95.30;;;;;;5072959;28;20267;-82
2023/03/01 05:13:14;;;;;;;15.47;9.13;;;3.30;95.50;;;;;;5073533;28;20189;-80
2023/03/01 05:15:40;;;;;;;11.10;9.27;;;3.30;95.50;;;;;;5074186;28;20606;-79
2023/03/01 05:18:11;;;;;;;18.40;10.47;;;3.20;95.60;;;;;;5072700;28;20250;-76
2023/03/01 05:20:37;;;;;;;13.73;8.60;;;3.10;95.70;;;;;;5074183;28;20302;-78
2023/03/01 05:23:05;;;;;;;13.23;9.10;;;3.00;95.80;;;;;;5072925;28;20187;-78
2023/03/01 05:25:34;;;;;;;15.60;9.37;;;3.00;95.90;;;;;;5072639;28;20185;-77
2023/03/01 05:28:04;;;;;;;13.40;8.93;;;3.10;95.60;;;;;;5074053;28;20181;-79
2023/03/01 05:30:33;;;;;;;15.77;9.53;;;3.00;95.60;;;;;;5073141;28;20630;-82
2023/03/01 05:33:01;;;;;;;16.57;9.03;;;3.10;95.50;;;;;;5073494;28;20171;-76
2023/03/01 05:35:27;;;;;;;14.53;9.17;;;3.10;95.60;;;;;;5073563;28;20642;-79
2023/03/01 05:37:53;;;;;;;14.10;9.23;;;3.10;95.50;;;;;;5073954;28;20211;-81
2023/03/01 05:40:21;;;;;;;13.83;9.57;;;3.10;95.60;;;;;;5073645;28;20213;-80
2023/03/01 05:42:49;;;;;;;14.00;9.10;;;3.10;95.00;;;;;;5074292;28;20302;-76
2023/03/01 05:45:16;;;;;;;14.20;9.60;;;3.10;94.90;;;;;;5073911;28;20171;-77
2023/03/01 05:47:44;;;;;;;13.80;9.20;;;3.20;95.10;;;;;;5072325;28;20574;-81
2023/03/01 05:50:32;;;;;;;13.73;9.17;;;3.20;94.90;;;;;;5073036;28;20493;-80
2023/03/01 05:53:01;;;;;;;13.17;9.53;;;3.30;94.90;;;;;;5073402;28;20253;-79
2023/03/01 05:55:29;;;;;;;12.33;9.07;;;3.40;95.10;;;;;;5073112;28;20258;-82
2023/03/01 05:57:55;;;;;;;14.27;9.80;;;3.40;95.10;;;;;;5071978;28;20183;-76
2023/03/01 06:00:22;;;;;;;14.13;9.90;;;3.40;95.30;;;;;;5071719;28;20208;-82
2023/03/01 06:02:48;;;;;;;13.73;9.17;;;3.50;95.20;;;;;;5073114;28;20162;-76
2023/03/01 06:05:15;;;;;;;13.30;9.43;;;3.60;95.00;;;;;;5072931;28;20175;-79
2023/03/01 06:07:41;;;;;;;17.70;9.33;;;3.60;94.90;;;;;;5073300;28;20244;-73
2023/03/01 06:10:09;;;;;;;13.13;9.57;;;3.60;94.70;;;;;;5072986;28;20182;-79
2023/03/01 06:12:37;;;;;;;12.30;8.53;;;3.50;94.80;;;;;;5072966;28;20258;-74
2023/03/01 06:15:04;;;;;;;14.30;8.80;;;3.50;94.90;;;;;;5073148;28;20305;-76
2023/03/01 06:17:31;;;;;;;17.67;9.37;;;3.70;95.10;;;;;;5071392;28;20203;-76
2023/03/01 06:19:57;;;;;;;12.63;9.03;;;3.70;94.90;;;;;;5072559;28;20252;-73
2023/03/01 06:22:23;;;;;;;17.80;9.53;;;3.80;94.70;;;;;;5072830;28;20167;-74
2023/03/01 06:24:49;;;;;;;17.13;10.07;;;3.70;94.60;;;;;;5078098;28;20191;-73
2023/03/01 06:27:15;;;;;;;16.10;9.67;;;3.70;94.70;;;;;;5073371;28;20199;-74
2023/03/01 06:29:41;;;;;;;15.27;9.17;;;3.80;94.60;;;;;;5071244;28;20176;-76
2023/03/01 06:32:07;;;;;;;15.87;9.30;;;3.70;94.60;;;;;;5072958;28;20180;-75
2023/03/01 06:34:33;;;;;;;14.63;9.30;;;3.60;94.30;;;;;;5074627;28;20221;-78
2023/03/01 06:36:59;;;;;;;16.87;9.20;;;3.60;94.60;;;;;;5093031;28;20583;-74
2023/03/01 06:39:27;;;;;;;19.33;10.90;;;3.70;94.70;;;;;;5083340;28;20195;-74
2023/03/01 06:41:52;;;;;;;26.50;12.23;;;3.70;94.40;;;;;;5076126;28;20238;-72
2023/03/01 06:44:18;;;;;;;17.37;10.40;;;3.70;94.40;;;;;;5074094;28;20609;-77
2023/03/01 06:46:44;;;;;;;18.30;10.23;;;3.70;94.10;;;;;;5074134;28;20171;-74
2023/03/01 06:49:10;;;;;;;16.70;9.73;;;3.80;93.80;;;;;;5075826;28;20178;-75
2023/03/01 06:51:36;;;;;;;17.33;10.30;;;3.70;93.90;;;;;;5077334;28;20175;-77
2023/03/01 06:54:04;;;;;;;16.90;10.33;;;3.70;94.00;;;;;;5091426;28;20230;-78
2023/03/01 06:56:31;;;;;;;15.10;9.53;;;3.80;93.70;;;;;;5092563;28;20194;-77
2023/03/01 06:58:56;;;;;;;16.83;9.50;;;3.80;93.90;;;;;;5078706;28;20264;-76
2023/03/01 07:01:22;;;;;;;14.70;9.00;;;3.90;94.00;;;;;;5073762;28;20551;-75
2023/03/01 07:03:48;;;;;;;14.73;9.27;;;3.90;93.90;;;;;;5072351;28;20172;-79
2023/03/01 07:06:13;;;;;;;15.63;9.27;;;3.90;93.90;;;;;;5072514;28;20177;-75
2023/03/01 07:08:39;;;;;;;13.63;8.80;;;3.90;94.20;;;;;;5073019;28;20187;-79
2023/03/01 07:11:05;;;;;;;13.50;9.33;;;4.00;94.40;;;;;;5072081;28;20259;-80
2023/03/01 07:13:31;;;;;;;14.80;9.10;;;4.00;94.30;;;;;;5071981;28;20228;-79
2023/03/01 07:15:57;;;;;;;14.70;9.07;;;4.00;94.20;;;;;;5072180;28;20179;-77
2023/03/01 07:18:23;;;;;;;13.73;8.87;;;4.00;94.10;;;;;;5071696;28;20338;-79
2023/03/01 07:20:49;;;;;;;13.37;8.20;;;4.10;93.90;;;;;;5071634;28;20218;-80
2023/03/01 07:23:15;;;;;;;12.13;8.47;;;4.10;93.80;;;;;;5071737;28;20231;-78
2023/03/01 07:25:41;;;;;;;14.10;9.00;;;4.20;93.70;;;;;;5070570;28;20274;-75
2023/03/01 07:28:07;;;;;;;13.50;9.67;;;4.30;94.00;;;;;;5071537;28;21027;-77
2023/03/01 07:30:33;;;;;;;14.07;9.40;;;4.20;94.40;;;;;;5071791;28;20208;-80
2023/03/01 07:32:59;;;;;;;13.47;8.67;;;4.30;94.50;;;;;;5071614;28;20588;-83
2023/03/01 07:35:26;;;;;;;14.00;8.47;;;4.30;94.50;;;;;;5074772;28;20392;-77
2023/03/01 07:37:52;;;;;;;11.20;8.03;;;4.30;93.80;;;;;;5075997;28;20264;-80
2023/03/01 07:40:19;;;;;;;9.33;7.50;;;4.30;92.50;;;;;;5075694;28;20210;-79
2023/03/01 07:42:44;;;;;;;11.00;8.10;;;4.30;92.40;;;;;;5075577;28;20303;-73
2023/03/01 07:45:10;;;;;;;11.40;8.37;;;4.30;93.10;;;;;;5075595;28;20262;-74
2023/03/01 07:47:36;;;;;;;10.87;7.93;;;4.20;93.10;;;;;;5071207;28;20716;-75
2023/03/01 07:50:03;;;;;;;13.10;8.37;;;4.30;93.30;;;;;;5072853;28;20183;-74
2023/03/01 07:52:30;;;;;;;11.53;8.13;;;4.40;93.20;;;;;;5075288;28;20182;-77
2023/03/01 07:54:56;;;;;;;12.10;8.10;;;4.50;93.30;;;;;;5075327;28;20635;-75
2023/03/01 07:57:23;;;;;;;10.90;8.13;;;4.40;93.60;;;;;;5076643;28;20186;-76
2023/03/01 07:59:49;;;;;;;16.07;9.27;;;4.40;93.70;;;;;;5075391;28;20206;-74
2023/03/01 08:02:15;;;;;;;11.70;8.50;;;4.50;93.50;;;;;;5074320;28;20187;-73
2023/03/01 08:04:42;;;;;;;13.50;9.30;;;4.60;93.50;;;;;;5075463;28;20181;-73
2023/03/01 08:07:07;;;;;;;13.33;8.77;;;4.60;93.90;;;;;;5074938;28;20626;-73
2023/03/01 08:09:37;;;;;;;13.20;8.03;;;4.60;93.80;;;;;;5076901;28;20175;-73
2023/03/01 08:12:04;;;;;;;12.23;8.73;;;4.70;93.50;;;;;;5083827;28;20178;-76
2023/03/01 08:14:31;;;;;;;16.27;8.97;;;4.80;93.30;;;;;;5076451;28;20174;-79
2023/03/01 08:16:56;;;;;;;12.63;8.20;;;4.80;94.00;;;;;;5075310;28;20160;-81
2023/03/01 08:19:22;;;;;;;12.40;8.33;;;4.70;94.10;;;;;;5074504;28;20206;-79
2023/03/01 08:21:48;;;;;;;13.23;8.67;;;4.80;95.30;;;;;;5075399;28;20174;-80
2023/03/01 08:24:14;;;;;;;13.07;8.40;;;4.90;95.60;;;;;;5075254;28;20199;-80
2023/03/01 08:26:39;;;;;;;12.53;8.20;;;5.00;95.70;;;;;;5075532;28;20255;-79
2023/03/01 08:29:05;;;;;;;11.00;7.73;;;5.10;95.40;;;;;;5073296;28;20742;-77
2023/03/01 08:31:35;;;;;;;12.83;8.27;;;5.10;94.10;;;;;;5075134;28;20692;-79
2023/03/01 08:34:03;;;;;;;12.37;7.40;;;5.20;93.50;;;;;;5075199;28;20198;-80
2023/03/01 08:36:32;;;;;;;10.10;7.43;;;5.00;93.50;;;;;;5073808;28;20175;-81
2023/03/01 08:38:58;;;;;;;9.57;7.47;;;4.90;93.80;;;;;;5074751;28;20195;-77
2023/03/01 08:41:26;;;;;;;11.03;7.53;;;5.00;93.50;;;;;;5075233;28;20194;-76
2023/03/01 08:43:52;;;;;;;9.70;7.40;;;4.90;93.00;;;;;;5075881;28;20222;-73
2023/03/01 08:46:18;;;;;;;9.87;7.10;;;4.90;92.40;;;;;;5075892;28;20178;-77
2023/03/01 08:48:44;;;;;;;13.73;7.67;;;4.90;92.70;;;;;;5075633;28;20172;-72
2023/03/01 08:51:12;;;;;;;11.27;8.00;;;4.60;92.60;;;;;;5083764;28;20182;-77
2023/03/01 08:53:38;;;;;;;12.00;7.47;;;4.50;93.30;;;;;;5081694;28;20225;-77
2023/03/01 08:56:04;;;;;;;13.27;8.80;;;4.60;94.00;;;;;;5075684;28;20177;-73
2023/03/01 08:58:30;;;;;;;12.17;7.70;;;4.80;93.20;;;;;;5074358;28;20578;-77
2023/03/01 09:00:56;;;;;;;11.73;8.10;;;4.70;92.90;;;;;;5074371;28;20586;-77
2023/03/01 09:03:23;;;;;;;16.67;8.67;;;4.60;93.00;;;;;;5074194;28;20182;-74
2023/03/01 09:05:50;;;;;;;11.80;8.00;;;4.50;93.40;;;;;;5072959;28;20194;-79
2023/03/01 09:08:19;;;;;;;10.77;8.13;;;4.40;93.20;;;;;;5074106;28;20172;-76
2023/03/01 09:10:45;;;;;;;11.60;8.10;;;4.50;93.70;;;;;;5073078;28;20179;-79
2023/03/01 09:13:12;;;;;;;9.83;7.93;;;4.60;93.50;;;;;;5074209;28;20206;-75
2023/03/01 09:15:38;;;;;;;11.07;8.00;;;4.70;93.40;;;;;;5074252;28;20260;-77
2023/03/01 09:18:05;;;;;;;12.50;8.43;;;4.80;93.40;;;;;;5073948;28;20630;-77
2023/03/01 09:20:31;;;;;;;13.50;9.23;;;4.90;93.60;;;;;;5073486;28;20210;-73
2023/03/01 09:22:57;;;;;;;13.23;8.47;;;5.00;93.40;;;;;;5074211;28;20723;-77
2023/03/01 09:25:24;;;;;;;9.57;7.23;;;5.00;93.40;;;;;;5073993;28;20264;-73
2023/03/01 09:27:54;;;;;;;13.43;8.10;;;5.10;93.80;;;;;;5074213;28;20180;-72
2023/03/01 09:30:20;;;;;;;13.10;8.67;;;4.80;93.90;;;;;;5073465;28;20532;-77
2023/03/01 09:32:46;;;;;;;12.20;8.40;;;4.60;94.20;;;;;;5074242;28;20653;-76
2023/03/01 09:35:12;;;;;;;12.10;9.13;;;4.50;94.40;;;;;;5075749;28;20232;-73
2023/03/01 09:37:42;;;;;;;10.90;8.40;;;4.60;94.60;;;;;;5075265;28;20320;-74
2023/03/01 09:40:28;;;;;;;12.27;7.93;;;4.60;94.70;;;;;;5075011;28;20378;-72
2023/03/01 09:43:08;;;;;;;13.70;8.97;;;4.60;95.50;;;;;;5074215;28;20251;-76
2023/03/01 09:45:38;;;;;;;12.00;8.77;;;4.70;94.60;;;;;;5082531;28;20191;-77
2023/03/01 09:48:05;;;;;;;12.37;9.20;;;4.70;94.90;;;;;;5074702;28;20206;-73
2023/03/01 09:50:40;;;;;;;17.70;9.17;;;4.80;94.90;;;;;;5079078;28;20178;-73
2023/03/01 09:53:34;;;;;;;12.63;8.40;;;4.80;94.70;;;;;;5084596;28;20214;-75
2023/03/01 09:56:22;;;;;;;13.80;9.20;;;4.90;94.10;;;;;;5071582;28;20190;-77
2023/03/01 09:58:57;;;;;;;13.43;8.73;;;4.90;94.00;;;;;;5072808;28;20174;-75
2023/03/01 10:01:36;;;;;;;14.80;9.60;;;4.80;94.10;;;;;;5072040;28;20564;-76
2023/03/01 10:04:13;;;;;;;15.17;9.00;;;4.80;94.30;;;;;;5072371;28;20174;-77
2023/03/01 10:06:46;;;;;;;16.23;9.40;;;4.80;94.30;;;;;;5072265;28;20288;-79
2023/03/01 10:09:16;;;;;;;12.07;8.50;;;5.00;94.20;;;;;;5073079;28;20245;-74
2023/03/01 10:11:53;;;;;;;15.00;9.97;;;4.90;94.10;;;;;;5073458;28;20164;-77
2023/03/01 10:14:51;;;;;;;14.93;8.80;;;4.90;93.90;;;;;;5073304;28;20194;-78
2023/03/01 10:17:19;;;;;;;16.07;9.90;;;4.80;94.30;;;;;;5071886;28;20538;-76
2023/03/01 10:19:46;;;;;;;14.77;9.43;;;4.90;94.20;;;;;;5070925;28;20207;-80
2023/03/01 10:22:18;;;;;;;13.20;9.40;;;5.00;93.90;;;;;;5073215;28;20303;-74
2023/03/01 10:24:46;;;;;;;11.03;7.97;;;5.00;93.90;;;;;;5073232;28;20652;-74
2023/03/01 10:27:24;;;;;;;17.50;9.43;;;4.90;94.10;;;;;;5073143;28;20251;-71
2023/03/01 10:30:15;;;;;;;13.70;9.23;;;5.00;94.00;;;;;;5072611;28;20202;-74
2023/03/01 10:32:42;;;;;;;14.10;9.40;;;5.10;94.20;;;;;;5072829;28;20159;-73
2023/03/01 10:35:19;;;;;;;12.33;8.90;;;5.00;94.00;;;;;;5072618;28;20163;-75
2023/03/01 10:38:04;;;;;;;12.57;8.13;;;5.10;94.10;;;;;;5072456;28;20172;-75
2023/03/01 10:40:31;;;;;;;14.20;9.23;;;5.30;94.00;;;;;;5071147;28;20198;-76
2023/03/01 10:43:05;;;;;;;14.73;9.33;;;5.30;94.00;;;;;;5072770;28;20219;-74
2023/03/01 10:45:36;;;;;;;14.00;9.10;;;5.20;94.30;;;;;;5072761;28;20169;-76
2023/03/01 10:48:08;;;;;;;13.13;8.93;;;5.10;94.60;;;;;;5072750;28;20199;-78
2023/03/01 10:50:36;;;;;;;14.30;8.70;;;5.20;94.70;;;;;;5075725;28;20200;-75
2023/03/01 10:53:03;;;;;;;17.10;10.00;;;5.20;94.90;;;;;;5079205;28;20172;-77
2023/03/01 10:55:39;;;;;;;15.03;8.93;;;5.20;94.60;;;;;;5072800;28;20577;-73
2023/03/01 10:58:08;;;;;;;13.07;9.27;;;5.30;94.70;;;;;;5072292;28;20225;-72
2023/03/01 11:00:48;;;;;;;14.23;8.90;;;5.30;94.60;;;;;;5071960;28;20203;-77
2023/03/01 11:03:19;;;;;;;13.97;9.50;;;5.30;94.70;;;;;;5072276;28;20163;-76
2023/03/01 11:05:59;;;;;;;14.20;9.33;;;5.50;94.70;;;;;;5072306;28;20167;-73
2023/03/01 11:08:43;;;;;;;14.73;8.90;;;5.50;94.50;;;;;;5072364;28;20167;-73
2023/03/01 11:11:29;;;;;;;14.20;9.17;;;5.50;94.80;;;;;;5072654;28;20627;-74
2023/03/01 11:14:23;;;;;;;15.17;9.33;;;5.60;94.70;;;;;;5073014;28;20167;-78
2023/03/01 11:17:01;;;;;;;14.20;8.83;;;5.60;94.50;;;;;;5075581;28;20500;-79
2023/03/01 11:19:27;;;;;;;14.47;9.97;;;5.60;94.40;;;;;;5078165;28;20624;-79
2023/03/01 11:22:01;;;;;;;16.47;9.67;;;5.60;94.70;;;;;;5072676;28;20175;-77
2023/03/01 11:24:34;;;;;;;13.73;9.30;;;5.60;94.70;;;;;;5072040;28;20178;-76
2023/03/01 11:27:06;;;;;;;13.67;9.00;;;5.50;95.00;;;;;;5071065;28;20169;-78
2023/03/01 11:29:34;;;;;;;14.03;8.70;;;5.60;95.00;;;;;;5070972;28;20581;-79
2023/03/01 11:32:06;;;;;;;18.10;8.60;;;5.50;95.00;;;;;;5071971;28;20180;-80
2023/03/01 11:34:41;;;;;;;17.83;9.20;;;5.60;95.20;;;;;;5072187;28;20171;-77
2023/03/01 11:37:38;;;;;;;15.23;9.53;;;5.70;94.90;;;;;;5072130;28;20197;-78
2023/03/01 11:40:12;;;;;;;14.10;9.53;;;5.70;95.00;;;;;;5058441;28;20228;-79
2023/03/01 11:42:59;;;;;;;18.20;9.57;;;5.60;95.30;;;;;;5071556;28;20218;-78
2023/03/01 11:45:29;;;;;;;14.20;9.90;;;5.50;95.30;;;;;;5070400;28;20699;-76
2023/03/01 11:48:27;;;;;;;14.70;9.47;;;5.50;95.40;;;;;;5071711;28;20196;-81
2023/03/01 11:50:56;;;;;;;13.13;9.17;;;5.30;95.70;;;;;;5071124;28;20247;-79
2023/03/01 11:53:25;;;;;;;14.33;9.50;;;5.50;95.70;;;;;;5072126;28;20648;-81
2023/03/01 11:56:16;;;;;;;16.20;9.63;;;5.60;95.50;;;;;;5072084;28;20175;-79
2023/03/01 11:58:48;;;;;;;16.13;10.57;;;5.70;95.50;;;;;;5072039;28;20174;-81
2023/03/01 12:01:13;;;;;;;14.07;9.93;;;5.50;95.60;;;;;;5071861;28;20276;-80
2023/03/01 12:04:02;;;;;;;14.37;9.13;;;5.50;95.90;;;;;;5072898;28;20195;-80
2023/03/01 12:06:40;;;;;;;13.67;9.40;;;5.60;95.40;;;;;;5070796;28;20172;-80
2023/03/01 12:09:27;;;;;;;14.53;9.03;;;5.60;95.30;;;;;;5071575;28;20163;-77
2023/03/01 12:12:05;;;;;;;15.73;9.73;;;5.80;95.30;;;;;;5071663;28;20161;-80
2023/03/01 12:14:39;;;;;;;13.13;8.90;;;5.90;95.30;;;;;;5071736;28;20550;-81
2023/03/01 12:17:30;;;;;;;13.87;8.60;;;6.10;95.20;;;;;;5071536;28;20248;-74
2023/03/01 12:20:17;;;;;;;11.40;8.90;;;6.20;94.90;;;;;;5072843;28;20586;-80
2023/03/01 12:23:17;;;;;;;14.57;10.07;;;6.20;95.30;;;;;;5075212;28;20196;-77
2023/03/01 12:26:02;;;;;;;13.53;9.57;;;6.20;95.10;;;;;;5075170;28;20709;-77
2023/03/01 12:28:30;;;;;;;16.43;8.83;;;6.40;94.90;;;;;;5074936;28;20202;-78
2023/03/01 12:31:28;;;;;;;13.20;8.87;;;6.20;94.90;;;;;;5074958;28;20255;-77
2023/03/01 12:34:23;;;;;;;15.10;9.73;;;6.30;94.80;;;;;;5075112;28;20163;-76
2023/03/01 12:37:05;;;;;;;15.83;9.20;;;6.20;94.70;;;;;;5074936;28;20160;-80
2023/03/01 12:39:49;;;;;;;14.73;8.53;;;6.10;94.60;;;;;;5074845;28;20199;-72
2023/03/01 12:42:33;;;;;;;15.30;8.37;;;5.80;94.80;;;;;;5075018;28;20227;-74
2023/03/01 12:45:05;;;;;;;15.03;9.43;;;5.80;94.80;;;;;;5074687;28;20170;-74
2023/03/01 12:48:07;;;;;;;16.37;9.03;;;5.90;94.90;;;;;;5079446;28;20578;-73
2023/03/01 12:50:41;;;;;;;14.53;9.33;;;6.10;94.60;;;;;;5027320;28;20181;-73
2023/03/01 12:53:34;;;;;;;15.60;9.30;;;6.10;94.50;;;;;;5076344;28;20190;-75
2023/03/01 12:56:09;;;;;;;15.77;8.67;;;6.10;94.70;;;;;;5065662;28;20684;-77
2023/03/01 12:58:46;;;;;;;14.87;8.73;;;6.20;94.50;;;;;;5072270;28;20268;-79
2023/03/01 13:01:39;;;;;;;16.17;9.40;;;6.20;94.60;;;;;;5073159;28;20176;-77
2023/03/01 13:04:16;;;;;;;15.00;8.77;;;6.30;94.60;;;;;;5073549;28;20182;-78
2023/03/01 13:07:04;;;;;;;12.93;8.60;;;6.30;94.60;;;;;;5073133;28;20534;-78
2023/03/01 13:09:48;;;;;;;12.77;8.67;;;6.20;94.60;;;;;;5073158;28;20164;-79